sensor_id;sensor_type;location;lat;lon;timestamp;P1;durP1;ratioP1;P2;durP2;ratioP2
2656;SDS011;1338;48.176;11.792;2024-01-15T00:01:22;11.63;;;7.97;;
2656;SDS011;1338;48.176;11.792;2024-01-15T00:03:50;11.40;;;8.60;;
2656;SDS011;1338;48.176;11.792;2024-01-15T00:06:20;10.30;;;7.67;;
2656;SDS011;1338;48.176;11.792;2024-01-15T00:08:48;9.50;;;7.63;;
2656;SDS011;1338;48.176;11.792;2024-01-15T00:11:16;6.53;;;5.60;;
2656;SDS011;1338;48.176;11.792;2024-01-15T00:13:43;7.37;;;6.03;;
2656;SDS011;1338;48.176;11.792;2024-01-15T00:16:12;7.27;;;5.80;;
2656;SDS011;1338;48.176;11.792;2024-01-15T00:18:40;7.07;;;5.90;;
2656;SDS011;1338;48.176;11.792;2024-01-15T00:21:08;7.30;;;6.07;;
2656;SDS011;1338;48.176;11.792;2024-01-15T00:23:39;9.17;;;6.93;;
2656;SDS011;1338;48.176;11.792;2024-01-15T00:26:10;9.53;;;6.33;;
2656;SDS011;1338;48.176;11.792;2024-01-15T00:28:39;10.17;;;7.97;;
2656;SDS011;1338;48.176;11.792;2024-01-15T00:31:07;9.53;;;8.27;;
2656;SDS011;1338;48.176;11.792;2024-01-15T00:33:35;7.30;;;6.30;;
2656;SDS011;1338;48.176;11.792;2024-01-15T00:36:04;9.70;;;8.80;;
2656;SDS011;1338;48.176;11.792;2024-01-15T00:38:39;11.77;;;8.90;;
2656;SDS011;1338;48.176;11.792;2024-01-15T00:41:10;10.40;;;6.10;;
2656;SDS011;1338;48.176;11.792;2024-01-15T00:43:41;9.77;;;7.40;;
2656;SDS011;1338;48.176;11.792;2024-01-15T00:46:11;8.70;;;7.50;;
2656;SDS011;1338;48.176;11.792;2024-01-15T00:48:41;9.83;;;7.57;;
2656;SDS011;1338;48.176;11.792;2024-01-15T00:51:13;10.23;;;7.03;;
2656;SDS011;1338;48.176;11.792;2024-01-15T00:53:45;8.80;;;7.87;;
2656;SDS011;1338;48.176;11.792;2024-01-15T00:56:15;12.70;;;8.57;;
2656;SDS011;1338;48.176;11.792;2024-01-15T00:58:46;6.07;;;5.30;;
2656;SDS011;1338;48.176;11.792;2024-01-15T01:01:24;12.27;;;9.07;;
2656;SDS011;1338;48.176;11.792;2024-01-15T01:04:00;10.87;;;8.80;;
2656;SDS011;1338;48.176;11.792;2024-01-15T01:06:33;11.50;;;9.83;;
2656;SDS011;1338;48.176;11.792;2024-01-15T01:09:05;15.10;;;11.27;;
2656;SDS011;1338;48.176;11.792;2024-01-15T01:11:44;20.43;;;10.73;;
2656;SDS011;1338;48.176;11.792;2024-01-15T01:14:49;12.10;;;7.57;;
2656;SDS011;1338;48.176;11.792;2024-01-15T01:18:15;14.47;;;10.50;;
2656;SDS011;1338;48.176;11.792;2024-01-15T01:21:02;15.60;;;10.70;;
2656;SDS011;1338;48.176;11.792;2024-01-15T01:23:49;13.20;;;11.50;;
2656;SDS011;1338;48.176;11.792;2024-01-15T01:26:31;14.23;;;11.17;;
2656;SDS011;1338;48.176;11.792;2024-01-15T01:29:03;13.50;;;10.37;;
2656;SDS011;1338;48.176;11.792;2024-01-15T01:32:11;11.70;;;9.90;;
2656;SDS011;1338;48.176;11.792;2024-01-15T01:35:50;11.77;;;9.70;;
2656;SDS011;1338;48.176;11.792;2024-01-15T01:39:27;11.47;;;10.23;;
2656;SDS011;1338;48.176;11.792;2024-01-15T01:42:06;10.17;;;7.77;;
2656;SDS011;1338;48.176;11.792;2024-01-15T01:47:57;9.40;;;7.60;;
2656;SDS011;1338;48.176;11.792;2024-01-15T01:50:35;7.63;;;5.93;;
2656;SDS011;1338;48.176;11.792;2024-01-15T01:56:58;19.03;;;6.60;;
2656;SDS011;1338;48.176;11.792;2024-01-15T02:03:20;12.27;;;8.70;;
2656;SDS011;1338;48.176;11.792;2024-01-15T02:05:54;9.60;;;7.47;;
2656;SDS011;1338;48.176;11.792;2024-01-15T02:08:40;9.40;;;6.67;;
2656;SDS011;1338;48.176;11.792;2024-01-15T02:15:35;9.47;;;6.67;;
2656;SDS011;1338;48.176;11.792;2024-01-15T02:18:14;6.57;;;5.87;;
2656;SDS011;1338;48.176;11.792;2024-01-15T02:21:30;9.73;;;6.30;;
2656;SDS011;1338;48.176;11.792;2024-01-15T02:24:09;8.00;;;5.27;;
2656;SDS011;1338;48.176;11.792;2024-01-15T02:30:40;8.90;;;6.30;;
2656;SDS011;1338;48.176;11.792;2024-01-15T02:33:18;6.00;;;5.00;;
2656;SDS011;1338;48.176;11.792;2024-01-15T02:35:53;7.83;;;5.70;;
2656;SDS011;1338;48.176;11.792;2024-01-15T02:38:28;9.50;;;6.70;;
2656;SDS011;1338;48.176;11.792;2024-01-15T02:45:33;11.73;;;7.47;;
2656;SDS011;1338;48.176;11.792;2024-01-15T02:48:05;9.13;;;7.50;;
2656;SDS011;1338;48.176;11.792;2024-01-15T02:50:42;11.50;;;7.23;;
2656;SDS011;1338;48.176;11.792;2024-01-15T02:53:37;10.17;;;7.10;;
2656;SDS011;1338;48.176;11.792;2024-01-15T02:57:29;9.73;;;6.60;;
2656;SDS011;1338;48.176;11.792;2024-01-15T03:01:29;15.47;;;9.40;;
2656;SDS011;1338;48.176;11.792;2024-01-15T03:05:11;8.60;;;6.70;;
2656;SDS011;1338;48.176;11.792;2024-01-15T03:08:57;10.20;;;6.67;;
2656;SDS011;1338;48.176;11.792;2024-01-15T03:13:06;10.30;;;8.70;;
2656;SDS011;1338;48.176;11.792;2024-01-15T03:31:30;9.03;;;6.23;;
2656;SDS011;1338;48.176;11.792;2024-01-15T03:38:30;12.80;;;8.90;;
2656;SDS011;1338;48.176;11.792;2024-01-15T03:44:28;10.97;;;7.40;;
2656;SDS011;1338;48.176;11.792;2024-01-15T03:48:15;10.33;;;7.07;;
2656;SDS011;1338;48.176;11.792;2024-01-15T03:51:45;9.00;;;6.60;;
2656;SDS011;1338;48.176;11.792;2024-01-15T03:55:22;10.83;;;7.77;;
2656;SDS011;1338;48.176;11.792;2024-01-15T03:58:10;11.43;;;7.30;;
2656;SDS011;1338;48.176;11.792;2024-01-15T04:01:43;14.23;;;7.47;;
2656;SDS011;1338;48.176;11.792;2024-01-15T04:09:23;11.20;;;8.47;;
2656;SDS011;1338;48.176;11.792;2024-01-15T04:16:44;10.23;;;6.97;;
2656;SDS011;1338;48.176;11.792;2024-01-15T04:20:28;12.27;;;7.30;;
2656;SDS011;1338;48.176;11.792;2024-01-15T04:24:12;11.43;;;7.77;;
2656;SDS011;1338;48.176;11.792;2024-01-15T04:31:13;11.00;;;5.70;;
2656;SDS011;1338;48.176;11.792;2024-01-15T04:35:03;11.80;;;7.50;;
2656;SDS011;1338;48.176;11.792;2024-01-15T04:49:51;10.90;;;7.10;;
2656;SDS011;1338;48.176;11.792;2024-01-15T04:52:19;10.17;;;6.90;;
2656;SDS011;1338;48.176;11.792;2024-01-15T04:54:47;8.57;;;5.50;;
2656;SDS011;1338;48.176;11.792;2024-01-15T04:57:16;10.17;;;7.50;;
2656;SDS011;1338;48.176;11.792;2024-01-15T04:59:44;7.90;;;6.10;;
2656;SDS011;1338;48.176;11.792;2024-01-15T05:02:12;9.00;;;6.00;;
2656;SDS011;1338;48.176;11.792;2024-01-15T05:07:54;7.27;;;6.07;;
2656;SDS011;1338;48.176;11.792;2024-01-15T05:10:27;10.53;;;7.73;;
2656;SDS011;1338;48.176;11.792;2024-01-15T05:12:56;7.53;;;6.43;;
2656;SDS011;1338;48.176;11.792;2024-01-15T05:15:26;13.43;;;6.37;;
2656;SDS011;1338;48.176;11.792;2024-01-15T05:17:57;9.00;;;7.57;;
2656;SDS011;1338;48.176;11.792;2024-01-15T05:20:26;9.10;;;6.80;;
2656;SDS011;1338;48.176;11.792;2024-01-15T05:22:57;10.60;;;7.20;;
2656;SDS011;1338;48.176;11.792;2024-01-15T05:25:26;11.57;;;7.90;;
2656;SDS011;1338;48.176;11.792;2024-01-15T05:27:55;7.47;;;5.97;;
2656;SDS011;1338;48.176;11.792;2024-01-15T05:30:25;6.83;;;5.93;;
2656;SDS011;1338;48.176;11.792;2024-01-15T05:32:54;9.73;;;6.63;;
2656;SDS011;1338;48.176;11.792;2024-01-15T05:35:24;10.00;;;7.47;;
2656;SDS011;1338;48.176;11.792;2024-01-15T05:37:53;9.40;;;6.80;;
2656;SDS011;1338;48.176;11.792;2024-01-15T05:40:25;9.30;;;5.53;;
2656;SDS011;1338;48.176;11.792;2024-01-15T05:42:56;12.97;;;7.80;;
2656;SDS011;1338;48.176;11.792;2024-01-15T05:45:26;11.60;;;6.20;;
2656;SDS011;1338;48.176;11.792;2024-01-15T05:47:56;8.93;;;6.50;;
2656;SDS011;1338;48.176;11.792;2024-01-15T05:50:26;8.30;;;6.60;;
2656;SDS011;1338;48.176;11.792;2024-01-15T05:52:57;10.13;;;5.80;;
2656;SDS011;1338;48.176;11.792;2024-01-15T05:55:38;7.30;;;5.37;;
2656;SDS011;1338;48.176;11.792;2024-01-15T05:58:07;10.37;;;7.90;;
2656;SDS011;1338;48.176;11.792;2024-01-15T06:00:40;8.20;;;5.70;;
2656;SDS011;1338;48.176;11.792;2024-01-15T06:03:09;7.30;;;6.00;;
2656;SDS011;1338;48.176;11.792;2024-01-15T06:05:40;9.33;;;8.40;;
2656;SDS011;1338;48.176;11.792;2024-01-15T06:08:09;8.90;;;7.70;;
2656;SDS011;1338;48.176;11.792;2024-01-15T06:10:42;9.30;;;6.73;;
2656;SDS011;1338;48.176;11.792;2024-01-15T06:13:14;7.80;;;5.87;;
2656;SDS011;1338;48.176;11.792;2024-01-15T06:15:46;8.23;;;7.40;;
2656;SDS011;1338;48.176;11.792;2024-01-15T06:18:16;10.60;;;6.47;;
2656;SDS011;1338;48.176;11.792;2024-01-15T06:20:48;7.97;;;6.00;;
2656;SDS011;1338;48.176;11.792;2024-01-15T06:23:22;6.53;;;5.43;;
2656;SDS011;1338;48.176;11.792;2024-01-15T06:25:56;6.10;;;5.27;;
2656;SDS011;1338;48.176;11.792;2024-01-15T06:28:25;8.23;;;6.27;;
2656;SDS011;1338;48.176;11.792;2024-01-15T06:31:06;5.80;;;5.10;;
2656;SDS011;1338;48.176;11.792;2024-01-15T06:33:38;7.33;;;6.50;;
2656;SDS011;1338;48.176;11.792;2024-01-15T06:36:09;6.50;;;4.47;;
2656;SDS011;1338;48.176;11.792;2024-01-15T06:38:39;8.50;;;6.00;;
2656;SDS011;1338;48.176;11.792;2024-01-15T06:41:10;7.60;;;5.83;;
2656;SDS011;1338;48.176;11.792;2024-01-15T06:43:39;6.77;;;5.97;;
2656;SDS011;1338;48.176;11.792;2024-01-15T06:46:09;7.50;;;4.80;;
2656;SDS011;1338;48.176;11.792;2024-01-15T06:48:41;9.20;;;4.87;;
2656;SDS011;1338;48.176;11.792;2024-01-15T06:51:11;6.13;;;5.00;;
2656;SDS011;1338;48.176;11.792;2024-01-15T06:53:47;7.13;;;5.67;;
2656;SDS011;1338;48.176;11.792;2024-01-15T06:56:18;6.00;;;5.33;;
2656;SDS011;1338;48.176;11.792;2024-01-15T06:58:47;5.53;;;4.80;;
2656;SDS011;1338;48.176;11.792;2024-01-15T07:01:16;6.50;;;5.73;;
2656;SDS011;1338;48.176;11.792;2024-01-15T07:03:51;7.13;;;5.43;;
2656;SDS011;1338;48.176;11.792;2024-01-15T07:06:23;6.93;;;5.83;;
2656;SDS011;1338;48.176;11.792;2024-01-15T07:08:53;6.27;;;5.00;;
2656;SDS011;1338;48.176;11.792;2024-01-15T07:11:25;5.57;;;4.63;;
2656;SDS011;1338;48.176;11.792;2024-01-15T07:13:55;6.50;;;5.57;;
2656;SDS011;1338;48.176;11.792;2024-01-15T07:16:24;6.03;;;4.50;;
2656;SDS011;1338;48.176;11.792;2024-01-15T07:19:03;6.53;;;4.27;;
2656;SDS011;1338;48.176;11.792;2024-01-15T07:21:38;9.67;;;5.53;;
2656;SDS011;1338;48.176;11.792;2024-01-15T07:24:10;8.67;;;5.10;;
2656;SDS011;1338;48.176;11.792;2024-01-15T07:26:44;6.77;;;5.80;;
2656;SDS011;1338;48.176;11.792;2024-01-15T07:29:14;7.07;;;5.50;;
2656;SDS011;1338;48.176;11.792;2024-01-15T07:31:47;6.80;;;5.50;;
2656;SDS011;1338;48.176;11.792;2024-01-15T07:34:29;7.03;;;5.40;;
2656;SDS011;1338;48.176;11.792;2024-01-15T07:37:10;9.03;;;6.50;;
2656;SDS011;1338;48.176;11.792;2024-01-15T07:39:42;6.27;;;5.40;;
2656;SDS011;1338;48.176;11.792;2024-01-15T07:42:33;7.60;;;5.40;;
2656;SDS011;1338;48.176;11.792;2024-01-15T07:45:04;6.33;;;5.20;;
2656;SDS011;1338;48.176;11.792;2024-01-15T07:47:40;6.23;;;5.57;;
2656;SDS011;1338;48.176;11.792;2024-01-15T07:50:13;7.90;;;5.67;;
2656;SDS011;1338;48.176;11.792;2024-01-15T07:52:46;6.77;;;5.30;;
2656;SDS011;1338;48.176;11.792;2024-01-15T07:55:17;7.90;;;4.90;;
2656;SDS011;1338;48.176;11.792;2024-01-15T07:57:48;6.40;;;5.00;;
2656;SDS011;1338;48.176;11.792;2024-01-15T08:00:31;6.40;;;5.03;;
2656;SDS011;1338;48.176;11.792;2024-01-15T08:03:02;7.57;;;5.43;;
2656;SDS011;1338;48.176;11.792;2024-01-15T08:05:39;10.40;;;7.83;;
2656;SDS011;1338;48.176;11.792;2024-01-15T08:08:08;6.27;;;5.53;;
2656;SDS011;1338;48.176;11.792;2024-01-15T08:10:38;9.10;;;6.57;;
2656;SDS011;1338;48.176;11.792;2024-01-15T08:13:11;10.60;;;7.90;;
2656;SDS011;1338;48.176;11.792;2024-01-15T08:15:47;8.37;;;6.23;;
2656;SDS011;1338;48.176;11.792;2024-01-15T08:18:18;9.00;;;5.60;;
2656;SDS011;1338;48.176;11.792;2024-01-15T08:20:51;9.93;;;7.47;;
2656;SDS011;1338;48.176;11.792;2024-01-15T08:23:28;9.23;;;5.60;;
2656;SDS011;1338;48.176;11.792;2024-01-15T08:26:13;8.77;;;7.77;;
2656;SDS011;1338;48.176;11.792;2024-01-15T08:28:55;8.30;;;6.30;;
2656;SDS011;1338;48.176;11.792;2024-01-15T08:31:26;9.83;;;6.23;;
2656;SDS011;1338;48.176;11.792;2024-01-15T08:34:18;11.00;;;7.30;;
2656;SDS011;1338;48.176;11.792;2024-01-15T08:37:06;10.27;;;7.40;;
2656;SDS011;1338;48.176;11.792;2024-01-15T08:39:36;8.63;;;6.50;;
2656;SDS011;1338;48.176;11.792;2024-01-15T08:42:09;7.73;;;6.43;;
2656;SDS011;1338;48.176;11.792;2024-01-15T08:44:43;12.00;;;7.63;;
2656;SDS011;1338;48.176;11.792;2024-01-15T08:47:13;8.40;;;6.10;;
2656;SDS011;1338;48.176;11.792;2024-01-15T08:49:48;7.27;;;6.57;;
2656;SDS011;1338;48.176;11.792;2024-01-15T08:52:27;9.00;;;8.10;;
2656;SDS011;1338;48.176;11.792;2024-01-15T08:54:58;8.40;;;6.20;;
2656;SDS011;1338;48.176;11.792;2024-01-15T08:57:28;7.47;;;6.63;;
2656;SDS011;1338;48.176;11.792;2024-01-15T09:00:21;9.97;;;5.07;;
2656;SDS011;1338;48.176;11.792;2024-01-15T09:02:57;8.53;;;7.20;;
2656;SDS011;1338;48.176;11.792;2024-01-15T09:05:30;7.77;;;6.10;;
2656;SDS011;1338;48.176;11.792;2024-01-15T09:08:04;8.70;;;6.30;;
2656;SDS011;1338;48.176;11.792;2024-01-15T09:10:38;9.87;;;6.90;;
2656;SDS011;1338;48.176;11.792;2024-01-15T09:13:13;8.10;;;5.10;;
2656;SDS011;1338;48.176;11.792;2024-01-15T09:16:05;9.20;;;6.90;;
2656;SDS011;1338;48.176;11.792;2024-01-15T09:18:44;9.10;;;6.53;;
2656;SDS011;1338;48.176;11.792;2024-01-15T09:21:19;6.53;;;5.83;;
2656;SDS011;1338;48.176;11.792;2024-01-15T09:23:57;7.93;;;6.33;;
2656;SDS011;1338;48.176;11.792;2024-01-15T09:26:35;10.30;;;7.03;;
2656;SDS011;1338;48.176;11.792;2024-01-15T09:29:07;8.50;;;6.70;;
2656;SDS011;1338;48.176;11.792;2024-01-15T09:31:43;8.93;;;4.83;;
2656;SDS011;1338;48.176;11.792;2024-01-15T09:34:32;8.20;;;5.87;;
2656;SDS011;1338;48.176;11.792;2024-01-15T09:37:17;8.00;;;5.57;;
2656;SDS011;1338;48.176;11.792;2024-01-15T09:40:12;8.10;;;7.30;;
2656;SDS011;1338;48.176;11.792;2024-01-15T09:42:46;7.33;;;6.63;;
2656;SDS011;1338;48.176;11.792;2024-01-15T09:45:16;6.80;;;5.07;;
2656;SDS011;1338;48.176;11.792;2024-01-15T09:47:47;8.23;;;6.77;;
2656;SDS011;1338;48.176;11.792;2024-01-15T09:50:18;6.90;;;5.80;;
2656;SDS011;1338;48.176;11.792;2024-01-15T09:52:47;7.77;;;5.70;;
2656;SDS011;1338;48.176;11.792;2024-01-15T09:55:34;9.27;;;6.20;;
2656;SDS011;1338;48.176;11.792;2024-01-15T09:58:11;5.83;;;5.23;;
2656;SDS011;1338;48.176;11.792;2024-01-15T10:00:53;7.73;;;6.33;;
2656;SDS011;1338;48.176;11.792;2024-01-15T10:04:06;7.93;;;6.30;;
2656;SDS011;1338;48.176;11.792;2024-01-15T10:07:03;6.87;;;5.50;;
2656;SDS011;1338;48.176;11.792;2024-01-15T10:09:44;6.10;;;5.40;;
2656;SDS011;1338;48.176;11.792;2024-01-15T10:12:15;7.27;;;6.00;;
2656;SDS011;1338;48.176;11.792;2024-01-15T10:14:58;7.60;;;5.30;;
2656;SDS011;1338;48.176;11.792;2024-01-15T10:17:28;8.13;;;6.47;;
2656;SDS011;1338;48.176;11.792;2024-01-15T10:23:02;8.43;;;6.10;;
2656;SDS011;1338;48.176;11.792;2024-01-15T10:25:32;5.73;;;4.90;;
2656;SDS011;1338;48.176;11.792;2024-01-15T10:28:07;6.37;;;5.37;;
2656;SDS011;1338;48.176;11.792;2024-01-15T10:31:00;5.00;;;4.50;;
2656;SDS011;1338;48.176;11.792;2024-01-15T10:33:35;6.57;;;5.87;;
2656;SDS011;1338;48.176;11.792;2024-01-15T10:36:10;8.23;;;5.50;;
2656;SDS011;1338;48.176;11.792;2024-01-15T10:38:46;7.47;;;6.30;;
2656;SDS011;1338;48.176;11.792;2024-01-15T10:41:24;6.47;;;5.77;;
2656;SDS011;1338;48.176;11.792;2024-01-15T10:44:07;7.00;;;5.33;;
2656;SDS011;1338;48.176;11.792;2024-01-15T10:46:42;5.67;;;4.70;;
2656;SDS011;1338;48.176;11.792;2024-01-15T10:49:36;5.00;;;4.43;;
2656;SDS011;1338;48.176;11.792;2024-01-15T10:52:23;5.87;;;5.30;;
2656;SDS011;1338;48.176;11.792;2024-01-15T10:55:10;5.00;;;4.10;;
2656;SDS011;1338;48.176;11.792;2024-01-15T10:58:09;5.50;;;4.20;;
2656;SDS011;1338;48.176;11.792;2024-01-15T11:00:48;6.97;;;5.37;;
2656;SDS011;1338;48.176;11.792;2024-01-15T11:03:29;5.93;;;4.30;;
2656;SDS011;1338;48.176;11.792;2024-01-15T11:06:18;4.40;;;3.97;;
2656;SDS011;1338;48.176;11.792;2024-01-15T11:08:59;4.77;;;4.23;;
2656;SDS011;1338;48.176;11.792;2024-01-15T11:11:40;6.10;;;4.57;;
2656;SDS011;1338;48.176;11.792;2024-01-15T11:14:33;8.10;;;4.47;;
2656;SDS011;1338;48.176;11.792;2024-01-15T11:17:08;4.80;;;4.30;;
2656;SDS011;1338;48.176;11.792;2024-01-15T11:19:54;6.60;;;4.37;;
2656;SDS011;1338;48.176;11.792;2024-01-15T11:22:48;6.03;;;5.43;;
2656;SDS011;1338;48.176;11.792;2024-01-15T11:25:37;5.90;;;5.00;;
2656;SDS011;1338;48.176;11.792;2024-01-15T11:28:13;4.97;;;4.47;;
2656;SDS011;1338;48.176;11.792;2024-01-15T11:37:58;6.03;;;5.43;;
2656;SDS011;1338;48.176;11.792;2024-01-15T11:40:40;5.33;;;4.83;;
2656;SDS011;1338;48.176;11.792;2024-01-15T11:43:30;4.87;;;4.37;;
2656;SDS011;1338;48.176;11.792;2024-01-15T11:46:04;8.33;;;6.37;;
2656;SDS011;1338;48.176;11.792;2024-01-15T11:48:45;8.13;;;5.57;;
2656;SDS011;1338;48.176;11.792;2024-01-15T11:51:19;7.23;;;4.80;;
2656;SDS011;1338;48.176;11.792;2024-01-15T11:53:54;7.57;;;5.13;;
2656;SDS011;1338;48.176;11.792;2024-01-15T11:56:33;7.13;;;4.87;;
2656;SDS011;1338;48.176;11.792;2024-01-15T11:59:05;5.27;;;4.60;;
2656;SDS011;1338;48.176;11.792;2024-01-15T12:01:39;5.53;;;4.90;;
2656;SDS011;1338;48.176;11.792;2024-01-15T12:04:13;6.30;;;4.70;;
2656;SDS011;1338;48.176;11.792;2024-01-15T12:06:53;5.40;;;4.40;;
2656;SDS011;1338;48.176;11.792;2024-01-15T12:09:29;5.37;;;4.87;;
2656;SDS011;1338;48.176;11.792;2024-01-15T12:12:07;6.23;;;5.40;;
2656;SDS011;1338;48.176;11.792;2024-01-15T12:14:45;5.27;;;4.20;;
2656;SDS011;1338;48.176;11.792;2024-01-15T12:17:21;4.80;;;4.10;;
2656;SDS011;1338;48.176;11.792;2024-01-15T12:19:54;5.33;;;4.57;;
2656;SDS011;1338;48.176;11.792;2024-01-15T12:22:34;4.87;;;4.40;;
2656;SDS011;1338;48.176;11.792;2024-01-15T12:25:28;4.70;;;4.30;;
2656;SDS011;1338;48.176;11.792;2024-01-15T12:28:00;4.43;;;4.03;;
2656;SDS011;1338;48.176;11.792;2024-01-15T12:30:41;4.43;;;4.03;;
2656;SDS011;1338;48.176;11.792;2024-01-15T12:33:17;6.60;;;4.87;;
2656;SDS011;1338;48.176;11.792;2024-01-15T12:36:00;4.10;;;3.67;;
2656;SDS011;1338;48.176;11.792;2024-01-15T12:38:59;3.80;;;3.30;;
2656;SDS011;1338;48.176;11.792;2024-01-15T12:41:30;4.73;;;3.50;;
2656;SDS011;1338;48.176;11.792;2024-01-15T12:46:55;7.80;;;3.93;;
2656;SDS011;1338;48.176;11.792;2024-01-15T12:49:25;4.03;;;3.60;;
2656;SDS011;1338;48.176;11.792;2024-01-15T12:51:56;4.23;;;3.30;;
2656;SDS011;1338;48.176;11.792;2024-01-15T12:54:30;4.10;;;3.10;;
2656;SDS011;1338;48.176;11.792;2024-01-15T12:57:00;4.20;;;3.50;;
2656;SDS011;1338;48.176;11.792;2024-01-15T13:00:01;3.80;;;3.50;;
2656;SDS011;1338;48.176;11.792;2024-01-15T13:02:48;4.40;;;4.00;;
2656;SDS011;1338;48.176;11.792;2024-01-15T13:05:20;3.67;;;3.17;;
2656;SDS011;1338;48.176;11.792;2024-01-15T13:07:59;5.07;;;3.53;;
2656;SDS011;1338;48.176;11.792;2024-01-15T13:10:56;4.40;;;3.33;;
2656;SDS011;1338;48.176;11.792;2024-01-15T13:14:12;5.13;;;3.67;;
2656;SDS011;1338;48.176;11.792;2024-01-15T13:17:10;3.87;;;3.43;;
2656;SDS011;1338;48.176;11.792;2024-01-15T13:19:38;4.00;;;3.60;;
2656;SDS011;1338;48.176;11.792;2024-01-15T13:22:22;5.87;;;4.03;;
2656;SDS011;1338;48.176;11.792;2024-01-15T13:24:59;6.10;;;4.10;;
2656;SDS011;1338;48.176;11.792;2024-01-15T13:28:00;4.80;;;4.03;;
2656;SDS011;1338;48.176;11.792;2024-01-15T13:30:48;4.43;;;3.70;;
2656;SDS011;1338;48.176;11.792;2024-01-15T13:36:54;5.70;;;4.23;;
2656;SDS011;1338;48.176;11.792;2024-01-15T13:39:32;5.73;;;3.87;;
2656;SDS011;1338;48.176;11.792;2024-01-15T13:42:04;4.20;;;3.63;;
2656;SDS011;1338;48.176;11.792;2024-01-15T13:44:33;4.70;;;4.23;;
2656;SDS011;1338;48.176;11.792;2024-01-15T13:47:03;5.20;;;3.47;;
2656;SDS011;1338;48.176;11.792;2024-01-15T13:49:33;6.03;;;4.20;;
2656;SDS011;1338;48.176;11.792;2024-01-15T13:52:05;4.10;;;3.70;;
2656;SDS011;1338;48.176;11.792;2024-01-15T13:54:36;4.27;;;3.87;;
2656;SDS011;1338;48.176;11.792;2024-01-15T13:57:15;6.63;;;4.00;;
2656;SDS011;1338;48.176;11.792;2024-01-15T13:59:47;5.33;;;4.20;;
2656;SDS011;1338;48.176;11.792;2024-01-15T14:02:16;4.23;;;3.67;;
2656;SDS011;1338;48.176;11.792;2024-01-15T14:04:50;4.67;;;4.20;;
2656;SDS011;1338;48.176;11.792;2024-01-15T14:07:21;6.10;;;4.67;;
2656;SDS011;1338;48.176;11.792;2024-01-15T14:09:50;6.47;;;4.60;;
2656;SDS011;1338;48.176;11.792;2024-01-15T14:12:19;5.57;;;4.97;;
2656;SDS011;1338;48.176;11.792;2024-01-15T14:15:09;6.20;;;5.43;;
2656;SDS011;1338;48.176;11.792;2024-01-15T14:17:41;6.30;;;5.00;;
2656;SDS011;1338;48.176;11.792;2024-01-15T14:20:10;7.17;;;5.00;;
2656;SDS011;1338;48.176;11.792;2024-01-15T14:22:50;7.23;;;5.60;;
2656;SDS011;1338;48.176;11.792;2024-01-15T14:25:24;6.60;;;4.97;;
2656;SDS011;1338;48.176;11.792;2024-01-15T14:27:54;5.30;;;4.80;;
2656;SDS011;1338;48.176;11.792;2024-01-15T14:30:40;5.10;;;4.60;;
2656;SDS011;1338;48.176;11.792;2024-01-15T14:33:11;5.83;;;5.20;;
2656;SDS011;1338;48.176;11.792;2024-01-15T14:35:41;4.50;;;4.10;;
2656;SDS011;1338;48.176;11.792;2024-01-15T14:41:40;5.83;;;5.23;;
2656;SDS011;1338;48.176;11.792;2024-01-15T14:44:18;6.13;;;4.53;;
2656;SDS011;1338;48.176;11.792;2024-01-15T14:47:03;6.90;;;4.70;;
2656;SDS011;1338;48.176;11.792;2024-01-15T14:49:50;6.27;;;4.60;;
2656;SDS011;1338;48.176;11.792;2024-01-15T14:52:47;6.57;;;5.00;;
2656;SDS011;1338;48.176;11.792;2024-01-15T14:55:30;6.03;;;5.37;;
2656;SDS011;1338;48.176;11.792;2024-01-15T15:01:20;5.23;;;4.70;;
2656;SDS011;1338;48.176;11.792;2024-01-15T15:03:51;6.17;;;5.40;;
2656;SDS011;1338;48.176;11.792;2024-01-15T15:06:39;9.67;;;5.57;;
2656;SDS011;1338;48.176;11.792;2024-01-15T15:09:12;5.20;;;4.20;;
2656;SDS011;1338;48.176;11.792;2024-01-15T15:11:42;4.83;;;4.20;;
2656;SDS011;1338;48.176;11.792;2024-01-15T15:14:17;6.30;;;5.33;;
2656;SDS011;1338;48.176;11.792;2024-01-15T15:16:46;5.63;;;4.63;;
2656;SDS011;1338;48.176;11.792;2024-01-15T15:19:31;4.33;;;3.90;;
2656;SDS011;1338;48.176;11.792;2024-01-15T15:22:17;4.10;;;3.70;;
2656;SDS011;1338;48.176;11.792;2024-01-15T15:24:50;5.13;;;3.80;;
2656;SDS011;1338;48.176;11.792;2024-01-15T15:27:24;5.77;;;3.90;;
2656;SDS011;1338;48.176;11.792;2024-01-15T15:30:00;4.53;;;4.00;;
2656;SDS011;1338;48.176;11.792;2024-01-15T15:32:32;5.00;;;4.43;;
2656;SDS011;1338;48.176;11.792;2024-01-15T15:35:17;4.60;;;4.10;;
2656;SDS011;1338;48.176;11.792;2024-01-15T15:37:55;8.77;;;4.20;;
2656;SDS011;1338;48.176;11.792;2024-01-15T15:40:25;4.70;;;4.20;;
2656;SDS011;1338;48.176;11.792;2024-01-15T15:42:54;4.20;;;3.80;;
2656;SDS011;1338;48.176;11.792;2024-01-15T15:45:27;5.80;;;4.23;;
2656;SDS011;1338;48.176;11.792;2024-01-15T15:47:56;5.43;;;4.33;;
2656;SDS011;1338;48.176;11.792;2024-01-15T15:50:25;4.37;;;3.97;;
2656;SDS011;1338;48.176;11.792;2024-01-15T15:52:59;4.67;;;4.10;;
2656;SDS011;1338;48.176;11.792;2024-01-15T15:55:32;4.60;;;4.20;;
2656;SDS011;1338;48.176;11.792;2024-01-15T15:58:16;6.20;;;5.20;;
2656;SDS011;1338;48.176;11.792;2024-01-15T16:00:52;4.67;;;4.20;;
2656;SDS011;1338;48.176;11.792;2024-01-15T16:03:21;6.50;;;4.80;;
2656;SDS011;1338;48.176;11.792;2024-01-15T16:06:18;5.33;;;4.40;;
2656;SDS011;1338;48.176;11.792;2024-01-15T16:09:02;6.90;;;4.97;;
2656;SDS011;1338;48.176;11.792;2024-01-15T16:11:33;5.23;;;4.73;;
2656;SDS011;1338;48.176;11.792;2024-01-15T16:14:44;7.13;;;6.40;;
2656;SDS011;1338;48.176;11.792;2024-01-15T16:20:59;6.83;;;4.90;;
2656;SDS011;1338;48.176;11.792;2024-01-15T16:23:49;5.17;;;4.40;;
2656;SDS011;1338;48.176;11.792;2024-01-15T16:26:47;10.97;;;6.10;;
2656;SDS011;1338;48.176;11.792;2024-01-15T16:29:39;6.43;;;5.80;;
2656;SDS011;1338;48.176;11.792;2024-01-15T16:32:35;8.47;;;7.33;;
2656;SDS011;1338;48.176;11.792;2024-01-15T16:38:01;9.63;;;7.40;;
2656;SDS011;1338;48.176;11.792;2024-01-15T16:40:45;11.47;;;8.33;;
2656;SDS011;1338;48.176;11.792;2024-01-15T16:43:26;9.73;;;6.93;;
2656;SDS011;1338;48.176;11.792;2024-01-15T16:45:57;13.03;;;10.63;;
2656;SDS011;1338;48.176;11.792;2024-01-15T16:48:27;12.83;;;8.23;;
2656;SDS011;1338;48.176;11.792;2024-01-15T16:51:13;8.20;;;7.37;;
2656;SDS011;1338;48.176;11.792;2024-01-15T16:53:43;9.60;;;7.23;;
2656;SDS011;1338;48.176;11.792;2024-01-15T16:56:12;12.00;;;7.60;;
2656;SDS011;1338;48.176;11.792;2024-01-15T16:58:44;10.23;;;8.40;;
2656;SDS011;1338;48.176;11.792;2024-01-15T17:01:14;10.33;;;7.60;;
2656;SDS011;1338;48.176;11.792;2024-01-15T17:03:45;11.57;;;8.00;;
2656;SDS011;1338;48.176;11.792;2024-01-15T17:06:15;12.70;;;8.20;;
2656;SDS011;1338;48.176;11.792;2024-01-15T17:08:46;15.10;;;9.03;;
2656;SDS011;1338;48.176;11.792;2024-01-15T17:11:21;14.60;;;9.90;;
2656;SDS011;1338;48.176;11.792;2024-01-15T17:13:51;12.53;;;9.53;;
2656;SDS011;1338;48.176;11.792;2024-01-15T17:16:19;13.40;;;8.83;;
2656;SDS011;1338;48.176;11.792;2024-01-15T17:18:52;11.03;;;9.83;;
2656;SDS011;1338;48.176;11.792;2024-01-15T17:21:24;15.57;;;10.90;;
2656;SDS011;1338;48.176;11.792;2024-01-15T17:23:56;7.63;;;6.83;;
2656;SDS011;1338;48.176;11.792;2024-01-15T17:26:29;9.37;;;8.40;;
2656;SDS011;1338;48.176;11.792;2024-01-15T17:29:00;8.50;;;7.60;;
2656;SDS011;1338;48.176;11.792;2024-01-15T17:31:31;8.20;;;5.37;;
2656;SDS011;1338;48.176;11.792;2024-01-15T17:34:03;5.67;;;4.83;;
2656;SDS011;1338;48.176;11.792;2024-01-15T17:40:09;4.57;;;4.17;;
2656;SDS011;1338;48.176;11.792;2024-01-15T17:42:44;5.27;;;4.77;;
2656;SDS011;1338;48.176;11.792;2024-01-15T17:45:28;5.03;;;4.60;;
2656;SDS011;1338;48.176;11.792;2024-01-15T17:48:27;4.80;;;4.40;;
2656;SDS011;1338;48.176;11.792;2024-01-15T17:50:58;5.20;;;4.70;;
2656;SDS011;1338;48.176;11.792;2024-01-15T17:53:28;3.83;;;3.43;;
2656;SDS011;1338;48.176;11.792;2024-01-15T17:56:00;4.37;;;3.97;;
2656;SDS011;1338;48.176;11.792;2024-01-15T17:58:34;3.83;;;3.50;;
2656;SDS011;1338;48.176;11.792;2024-01-15T18:01:06;5.00;;;4.50;;